Time;durP1;ratioP1;P1;durP2;ratioP2;P2;SDS_P1;SDS_P2;PMS_P1;PMS_P2;Temp;Humidity;BMP_temperature;BMP_pressure;BME280_temperature;BME280_humidity;BME280_pressure;Samples;Min_cycle;Max_cycle;Signal;HPM_P1;HPM_P2
2022/01/07 00:01:03;;;;;;;26.33;16.98;;;;;;;;;;6296862;22;20003;-73
2022/01/07 00:03:30;;;;;;;27.38;17.50;;;;;;;;;;6296193;22;20007;-75
2022/01/07 00:05:56;;;;;;;25.27;16.27;;;;;;;;;;6286841;22;20012;-74
2022/01/07 00:08:22;;;;;;;22.92;16.00;;;;;;;;;;6282869;22;20007;-75
2022/01/07 00:10:48;;;;;;;22.90;15.65;;;;;;;;;;6258994;22;20000;-74
2022/01/07 00:13:14;;;;;;;27.02;17.70;;;;;;;;;;6284429;22;20000;-74
2022/01/07 00:15:41;;;;;;;22.52;15.60;;;;;;;;;;6284609;22;20057;-74
2022/01/07 00:18:07;;;;;;;21.38;13.80;;;;;;;;;;6285818;22;20008;-75
2022/01/07 00:20:37;;;;;;;20.48;13.15;;;;;;;;;;6286351;22;20035;-73
2022/01/07 00:23:03;;;;;;;15.05;10.85;;;;;;;;;;6285397;22;20055;-75
2022/01/07 00:25:29;;;;;;;17.17;10.68;;;;;;;;;;6282553;22;20038;-74
2022/01/07 00:27:55;;;;;;;15.85;9.10;;;;;;;;;;6285327;22;20403;-74
2022/01/07 00:30:22;;;;;;;12.93;8.18;;;;;;;;;;6283864;22;20004;-74
2022/01/07 00:32:48;;;;;;;14.20;8.00;;;;;;;;;;6259778;22;20012;-75
2022/01/07 00:35:16;;;;;;;12.98;8.25;;;;;;;;;;6283613;22;20007;-74
2022/01/07 00:37:42;;;;;;;13.07;8.40;;;;;;;;;;6259218;22;20003;-74
2022/01/07 00:40:13;;;;;;;11.65;7.95;;;;;;;;;;6264673;22;20057;-74
2022/01/07 00:42:39;;;;;;;14.60;7.18;;;;;;;;;;6270388;22;20007;-74
2022/01/07 00:45:06;;;;;;;14.25;8.68;;;;;;;;;;6284665;22;20000;-75
2022/01/07 00:47:32;;;;;;;14.07;7.93;;;;;;;;;;6287951;22;20000;-74
2022/01/07 00:49:58;;;;;;;12.38;7.53;;;;;;;;;;6290164;22;19994;-74
2022/01/07 00:52:25;;;;;;;11.43;7.10;;;;;;;;;;6285918;22;20004;-73
2022/01/07 00:54:51;;;;;;;15.00;7.88;;;;;;;;;;6257100;22;20011;-73
2022/01/07 00:57:17;;;;;;;15.95;9.25;;;;;;;;;;6284524;22;20002;-74
2022/01/07 00:59:46;;;;;;;12.70;7.93;;;;;;;;;;6284408;22;20159;-74
2022/01/07 01:02:12;;;;;;;12.73;7.43;;;;;;;;;;6257971;22;20040;-74
2022/01/07 01:04:38;;;;;;;14.13;7.25;;;;;;;;;;6291186;22;20004;-74
2022/01/07 01:07:04;;;;;;;12.75;7.75;;;;;;;;;;6286107;22;20066;-74
2022/01/07 01:09:31;;;;;;;12.45;7.20;;;;;;;;;;6261004;22;20082;-74
2022/01/07 01:11:57;;;;;;;9.40;6.03;;;;;;;;;;6284451;22;20487;-74
2022/01/07 01:14:24;;;;;;;13.25;8.05;;;;;;;;;;6289909;22;20004;-74
2022/01/07 01:16:51;;;;;;;11.25;7.13;;;;;;;;;;6287505;22;19996;-73
2022/01/07 01:19:18;;;;;;;12.25;7.43;;;;;;;;;;6285845;22;20391;-74
2022/01/07 01:21:44;;;;;;;15.85;8.23;;;;;;;;;;6258546;22;20068;-73
2022/01/07 01:24:10;;;;;;;13.75;8.07;;;;;;;;;;6288281;22;20006;-74
2022/01/07 01:26:36;;;;;;;14.90;8.82;;;;;;;;;;6288377;22;20109;-75
2022/01/07 01:29:03;;;;;;;11.25;7.03;;;;;;;;;;6287731;22;19996;-74
2022/01/07 01:31:30;;;;;;;15.85;7.68;;;;;;;;;;6288123;22;20000;-75
2022/01/07 01:33:56;;;;;;;10.68;5.93;;;;;;;;;;6265774;22;20003;-74
2022/01/07 01:36:22;;;;;;;14.18;7.32;;;;;;;;;;6290185;22;20045;-74
2022/01/07 01:38:49;;;;;;;14.23;8.75;;;;;;;;;;6286034;22;19999;-74
2022/01/07 01:41:15;;;;;;;12.77;8.32;;;;;;;;;;6286593;22;20010;-74
2022/01/07 01:43:41;;;;;;;11.55;6.88;;;;;;;;;;6287547;22;19999;-74
2022/01/07 01:46:07;;;;;;;13.68;7.55;;;;;;;;;;6288725;22;20413;-74
2022/01/07 01:48:33;;;;;;;12.40;7.28;;;;;;;;;;6286565;22;20007;-74
2022/01/07 01:50:59;;;;;;;17.83;8.73;;;;;;;;;;6257637;22;20430;-74
2022/01/07 01:53:26;;;;;;;15.38;9.15;;;;;;;;;;6283790;22;20003;-74
2022/01/07 01:55:55;;;;;;;12.48;8.27;;;;;;;;;;6259008;22;20418;-74
2022/01/07 01:58:21;;;;;;;15.55;8.32;;;;;;;;;;6266341;22;20012;-74
2022/01/07 02:00:47;;;;;;;13.38;8.00;;;;;;;;;;6291701;22;20030;-74
2022/01/07 02:03:13;;;;;;;15.55;7.88;;;;;;;;;;6290360;22;19991;-74
2022/01/07 02:05:39;;;;;;;13.43;7.93;;;;;;;;;;6258025;22;20098;-74
2022/01/07 02:08:05;;;;;;;11.57;6.88;;;;;;;;;;6285353;22;19999;-75
2022/01/07 02:10:31;;;;;;;11.60;7.03;;;;;;;;;;6256860;22;20095;-74
2022/01/07 02:12:57;;;;;;;11.68;6.70;;;;;;;;;;6255207;22;20007;-74
2022/01/07 02:15:24;;;;;;;20.92;10.23;;;;;;;;;;6255959;22;20003;-74
2022/01/07 02:17:50;;;;;;;11.80;6.80;;;;;;;;;;6255868;22;19999;-74
2022/01/07 02:20:18;;;;;;;15.75;8.57;;;;;;;;;;6256691;22;20461;-75
2022/01/07 02:22:44;;;;;;;11.00;7.00;;;;;;;;;;6286309;22;20010;-74
2022/01/07 02:25:11;;;;;;;16.10;8.95;;;;;;;;;;6258071;22;20012;-74
2022/01/07 02:27:38;;;;;;;15.55;8.23;;;;;;;;;;6284912;22;20043;-74
2022/01/07 02:30:05;;;;;;;13.88;7.65;;;;;;;;;;6288364;22;20082;-74
2022/01/07 02:32:31;;;;;;;24.15;12.93;;;;;;;;;;6281572;22;20007;-74
2022/01/07 02:34:57;;;;;;;17.45;9.73;;;;;;;;;;6287011;22;20418;-74
2022/01/07 02:37:23;;;;;;;12.38;7.47;;;;;;;;;;6285055;22;20422;-72
2022/01/07 02:39:49;;;;;;;16.55;8.48;;;;;;;;;;6287050;22;20327;-73
2022/01/07 02:42:16;;;;;;;20.63;10.05;;;;;;;;;;6284703;22;20027;-74
2022/01/07 02:44:43;;;;;;;16.20;9.05;;;;;;;;;;6285248;22;20000;-73
2022/01/07 02:47:09;;;;;;;43.75;18.73;;;;;;;;;;6289191;22;19980;-73
2022/01/07 02:49:35;;;;;;;24.08;11.45;;;;;;;;;;6289990;22;20007;-73
2022/01/07 02:52:01;;;;;;;31.98;14.35;;;25.70;2201.60;;;;;;6287357;22;20006;-73
2022/01/07 02:54:27;;;;;;;37.97;16.88;;;25.60;2201.60;;;;;;6284710;22;19996;-74
2022/01/07 02:56:52;;;;;;;48.80;24.48;;;25.60;2201.60;;;;;;6291173;22;20078;-74
2022/01/07 02:59:18;;;;;;;19.42;10.80;;;;;;;;;;6286871;22;20023;-74
2022/01/07 03:01:45;;;;;;;19.38;9.52;;;;;;;;;;6291783;22;19991;-74
2022/01/07 03:04:11;;;;;;;27.30;14.13;;;;;;;;;;6285548;22;20010;-74
2022/01/07 03:06:37;;;;;;;19.75;11.00;;;;;;;;;;6288794;22;20023;-74
2022/01/07 03:09:04;;;;;;;14.38;7.90;;;;;;;;;;6285556;22;20000;-74
2022/01/07 03:11:32;;;;;;;16.48;9.27;;;;;;;;;;6294732;22;19995;-73
2022/01/07 03:13:59;;;;;;;15.50;8.45;;;;;;;;;;6288866;22;20425;-74
2022/01/07 03:16:25;;;;;;;15.27;9.38;;;;;;;;;;6286798;22;20002;-74
2022/01/07 03:18:51;;;;;;;11.27;5.85;;;;;;;;;;6286092;22;19991;-74
2022/01/07 03:21:21;;;;;;;14.90;6.50;;;;;;;;;;6259975;22;20018;-73
2022/01/07 03:23:49;;;;;;;10.65;6.47;;;;;;;;;;6285119;22;20031;-73
2022/01/07 03:26:15;;;;;;;12.98;6.97;;;;;;;;;;6284209;22;20082;-73
2022/01/07 03:28:43;;;;;;;14.40;6.82;;;;;;;;;;6283112;22;20004;-74
2022/01/07 03:31:09;;;;;;;11.23;6.25;;;;;;;;;;6290478;22;20372;-75
2022/01/07 03:33:35;;;;;;;13.48;8.02;;;;;;;;;;6287015;22;20012;-73
2022/01/07 03:36:01;;;;;;;9.80;6.22;;;;;;;;;;6284603;22;20033;-74
2022/01/07 03:38:45;;;;;;;12.07;5.57;;;;;;;;;;6285425;22;20034;-72
2022/01/07 03:41:11;;;;;;;10.88;6.22;;;;;;;;;;6285716;22;20008;-75
2022/01/07 03:43:37;;;;;;;12.50;7.93;;;;;;;;;;6287274;22;20129;-73
2022/01/07 03:46:03;;;;;;;11.85;6.07;;;;;;;;;;6282333;22;20467;-74
2022/01/07 03:48:29;;;;;;;8.80;5.22;;;;;;;;;;6283798;22;20073;-74
2022/01/07 03:50:58;;;;;;;12.50;6.80;;;;;;;;;;6282011;22;20014;-74
2022/01/07 03:53:25;;;;;;;10.32;5.13;;;;;;;;;;6280926;22;20002;-74
2022/01/07 03:55:52;;;;;;;11.85;5.30;;;;;;;;;;6284630;22;20418;-74
2022/01/07 03:58:21;;;;;;;7.70;5.28;;;;;;;;;;6292288;22;20014;-72
2022/01/07 04:00:47;;;;;;;11.45;5.65;;;;;;;;;;6281926;22;19984;-74
2022/01/07 04:03:15;;;;;;;10.73;5.32;;;;;;;;;;6286744;22;20015;-77
2022/01/07 04:05:41;;;;;;;8.45;4.40;;;;;;;;;;6289355;22;20333;-73
2022/01/07 04:08:08;;;;;;;6.80;4.68;;;;;;;;;;6284451;22;20000;-75
2022/01/07 04:10:35;;;;;;;9.77;5.30;;;;;;;;;;6293184;22;19999;-74
2022/01/07 04:13:01;;;;;;;8.30;4.85;;;;;;;;;;6281754;22;20003;-74
2022/01/07 04:15:27;;;;;;;6.68;4.20;;;;;;;;;;6288214;22;20006;-74
2022/01/07 04:17:56;;;;;;;10.20;5.50;;;;;;;;;;6286567;22;20006;-74
2022/01/07 04:20:25;;;;;;;13.38;5.10;;;;;;;;;;6279512;22;20421;-74
2022/01/07 04:22:52;;;;;;;13.77;5.72;;;;;;;;;;6280428;22;20465;-74
2022/01/07 04:25:19;;;;;;;10.88;6.00;;;;;;;;;;6282316;22;20489;-74
2022/01/07 04:27:46;;;;;;;10.73;6.10;;;;;;;;;;6257185;22;20006;-72
2022/01/07 04:30:12;;;;;;;11.00;6.57;;;;;;;;;;6279720;22;20010;-74
2022/01/07 04:32:42;;;;;;;11.40;6.15;;;;;;;;;;6283553;22;20027;-72
2022/01/07 04:35:08;;;;;;;10.52;6.93;;;;;;;;;;6281617;22;20418;-72
2022/01/07 04:37:36;;;;;;;13.38;7.20;;;;;;;;;;6282223;22;19999;-71
2022/01/07 04:40:05;;;;;;;12.00;6.72;;;;;;;;;;6284348;22;20126;-73
2022/01/07 04:42:31;;;;;;;11.98;7.28;;;;;;;;;;6286802;22;20133;-72
2022/01/07 04:44:57;;;;;;;12.13;6.68;;;;;;;;;;6284508;22;20007;-73
2022/01/07 04:47:23;;;;;;;21.92;10.77;;;;;;;;;;6288834;22;20322;-72
2022/01/07 04:49:50;;;;;;;13.38;7.63;;;;;;;;;;6287019;22;20031;-73
2022/01/07 04:52:17;;;;;;;13.32;7.40;;;;;;;;;;6282252;22;20344;-73
2022/01/07 04:54:45;;;;;;;15.60;7.95;;;;;;;;;;6281790;22;20023;-77
2022/01/07 04:57:11;;;;;;;17.67;8.50;;;;;;;;;;6253965;22;20311;-72
2022/01/07 04:59:37;;;;;;;14.15;7.57;;;;;;;;;;6287667;22;20018;-75
2022/01/07 05:02:03;;;;;;;15.60;7.53;;;;;;;;;;6282222;22;20007;-74
2022/01/07 05:04:29;;;;;;;16.80;8.15;;;;;;;;;;6283474;22;20002;-73
2022/01/07 05:06:55;;;;;;;21.25;9.38;;;;;;;;;;6282645;22;20007;-73
2022/01/07 05:09:21;;;;;;;20.58;10.65;;;;;;;;;;6286015;22;20015;-74
2022/01/07 05:11:48;;;;;;;20.58;10.90;;;;;;;;;;6288306;22;20079;-74
2022/01/07 05:14:14;;;;;;;17.75;10.02;;;;;;;;;;6289447;22;20004;-74
2022/01/07 05:16:41;;;;;;;17.42;8.60;;;;;;;;;;6285288;22;20070;-74
2022/01/07 05:19:11;;;;;;;14.90;8.43;;;;;;;;;;6287919;22;20004;-73
2022/01/07 05:21:38;;;;;;;12.90;7.70;;;;;;;;;;6287196;22;20015;-73
2022/01/07 05:24:06;;;;;;;16.27;8.52;;;;;;;;;;6263748;22;19999;-73
2022/01/07 05:26:33;;;;;;;15.02;8.63;;;;;;;;;;6290481;22;20498;-73
2022/01/07 05:28:59;;;;;;;14.82;8.10;;;;;;;;;;6288922;22;20003;-73
2022/01/07 05:31:29;;;;;;;23.50;11.40;;;;;;;;;;6288871;22;20009;-73
2022/01/07 05:33:56;;;;;;;23.42;11.48;;;;;;;;;;6294194;22;20067;-74
2022/01/07 05:36:22;;;;;;;28.17;13.10;;;;;;;;;;6285266;22;19996;-74
2022/01/07 05:38:48;;;;;;;26.25;13.18;;;;;;;;;;6260724;22;20012;-75
2022/01/07 05:41:18;;;;;;;28.40;13.45;;;;;;;;;;6259945;22;19996;-73
2022/01/07 05:43:44;;;;;;;42.22;18.88;;;;;;;;;;6293120;22;20000;-74
2022/01/07 05:46:14;;;;;;;40.20;18.48;;;;;;;;;;6287344;22;20007;-74
2022/01/07 05:48:40;;;;;;;33.38;15.10;;;;;;;;;;6285293;22;19999;-74
2022/01/07 05:51:07;;;;;;;33.17;15.68;;;;;;;;;;6283528;22;20509;-74
2022/01/07 05:53:35;;;;;;;41.17;18.67;;;;;;;;;;6289886;22;20026;-74
2022/01/07 05:56:01;;;;;;;38.35;18.75;;;;;;;;;;6288875;22;19996;-74
2022/01/07 05:58:27;;;;;;;38.28;19.98;;;;;;;;;;6286221;22;20019;-73
2022/01/07 06:00:53;;;;;;;28.83;15.07;;;;;;;;;;6293683;22;20011;-73
2022/01/07 06:03:19;;;;;;;26.08;13.65;;;;;;;;;;6287306;22;20004;-74
2022/01/07 06:05:45;;;;;;;22.92;12.68;;;;;;;;;;6287436;22;20026;-74
2022/01/07 06:08:11;;;;;;;23.77;11.73;;;;;;;;;;6285020;22;20007;-74
2022/01/07 06:10:37;;;;;;;17.88;9.90;;;;;;;;;;6286760;22;19999;-74
2022/01/07 06:13:03;;;;;;;26.77;11.27;;;;;;;;;;6285542;22;20049;-74
2022/01/07 06:15:30;;;;;;;19.05;10.45;;;;;;;;;;6283104;22;20000;-73
2022/01/07 06:17:56;;;;;;;18.67;10.65;;;;;;;;;;6260609;22;20000;-74
2022/01/07 06:20:26;;;;;;;18.38;9.55;;;;;;;;;;6289522;22;20024;-74
2022/01/07 06:22:52;;;;;;;15.77;9.50;;;;;;;;;;6288614;22;20057;-74
2022/01/07 06:25:26;;;;;;;30.88;13.15;;;;;;;;;;6288376;22;19995;-74
2022/01/07 06:27:53;;;;;;;25.98;13.55;;;;;;;;;;6266457;22;20018;-71
2022/01/07 06:30:19;;;;;;;16.13;11.32;;;;;;;;;;6260186;22;19988;-74
2022/01/07 06:32:45;;;;;;;18.95;9.95;;;;;;;;;;6263710;22;20030;-74
2022/01/07 06:35:11;;;;;;;18.58;11.05;;;;;;;;;;6262763;22;20011;-74
2022/01/07 06:37:38;;;;;;;54.83;24.98;;;;;;;;;;6294247;22;20003;-74
2022/01/07 06:40:13;;;;;;;40.72;20.55;;;;;;;;;;6287452;22;20014;-74
2022/01/07 06:42:39;;;;;;;73.60;33.00;;;;;;;;;;6259102;22;20011;-75
2022/01/07 06:45:06;;;;;;;49.88;21.75;;;;;;;;;;6255084;22;19995;-73
2022/01/07 06:47:33;;;;;;;40.65;19.80;;;;;;;;;;6283670;22;20004;-74
2022/01/07 06:49:59;;;;;;;64.13;28.13;;;;;;;;;;6281484;22;20002;-74
2022/01/07 06:52:25;;;;;;;45.65;21.40;;;;;;;;;;6286447;22;20079;-73
2022/01/07 06:54:51;;;;;;;40.13;18.83;;;;;;;;;;6284672;22;20000;-74
2022/01/07 06:57:17;;;;;;;35.15;16.55;;;;;;;;;;6281750;22;20023;-72
2022/01/07 06:59:45;;;;;;;47.38;22.27;;;;;;;;;;6282555;22;20007;-74
2022/01/07 07:02:11;;;;;;;26.17;13.35;;;;;;;;;;6288284;22;20014;-74
2022/01/07 07:04:40;;;;;;;35.10;20.77;;;;;;;;;;6289820;22;20000;-75
2022/01/07 07:07:08;;;;;;;38.42;20.65;;;;;;;;;;6261649;22;20022;-75
2022/01/07 07:09:34;;;;;;;40.42;20.05;;;;;;;;;;6287160;22;20070;-75
2022/01/07 07:12:00;;;;;;;35.08;16.85;;;;;;;;;;6284835;22;20095;-75
2022/01/07 07:14:26;;;;;;;29.85;14.10;;;;;;;;;;6287305;22;20058;-75
2022/01/07 07:16:52;;;;;;;18.15;8.50;;;;;;;;;;6294154;22;20004;-74
2022/01/07 07:19:18;;;;;;;17.83;10.02;;;;;;;;;;6300509;22;20026;-74
2022/01/07 07:21:44;;;;;;;17.20;9.95;;;;;;;;;;6292806;22;20010;-75
2022/01/07 07:24:10;;;;;;;31.60;16.42;;;;;;;;;;6286329;22;19999;-75
2022/01/07 07:26:36;;;;;;;26.48;15.40;;;;;;;;;;6281592;22;20050;-75
2022/01/07 07:29:02;;;;;;;23.52;13.75;;;;;;;;;;6282480;22;20008;-75
2022/01/07 07:31:30;;;;;;;18.52;9.88;;;;;;;;;;6281686;22;20003;-75
2022/01/07 07:34:18;;;;;;;22.38;12.52;;;;;;;;;;6282384;22;20038;-74
2022/01/07 07:36:44;;;;;;;55.70;29.92;;;;;;;;;;6283046;22;20441;-74
2022/01/07 07:39:11;;;;;;;59.42;32.80;;;;;;;;;;6282463;22;20019;-75
2022/01/07 07:41:38;;;;;;;40.00;22.48;;;;;;;;;;6279550;22;20495;-75
2022/01/07 07:44:05;;;;;;;33.38;18.30;;;;;;;;;;6279339;22;20006;-75
2022/01/07 07:46:32;;;;;;;35.55;18.38;;;;;;;;;;6252954;22;20307;-73
2022/01/07 07:49:00;;;;;;;28.02;16.23;;;;;;;;;;6286967;22;19984;-78
2022/01/07 07:51:51;;;;;;;18.50;11.52;;;;;;;;;;6292093;22;20000;-76
2022/01/07 07:54:18;;;;;;;25.88;14.88;;;;;;;;;;6294364;22;19991;-74
2022/01/07 07:56:44;;;;;;;25.60;12.77;;;;;;;;;;6269068;22;20063;-76
2022/01/07 07:59:10;;;;;;;25.58;14.02;;;;;;;;;;6294125;22;20012;-76
2022/01/07 08:01:36;;;;;;;22.38;12.55;;;;;;;;;;6288274;22;20011;-75
2022/01/07 08:04:06;;;;;;;19.55;11.80;;;;;;;;;;6280877;22;19996;-72
2022/01/07 08:06:32;;;;;;;22.50;13.45;;;;;;;;;;6280523;22;20337;-75
2022/01/07 08:09:02;;;;;;;23.65;13.45;;;;;;;;;;6277966;22;20075;-75
2022/01/07 08:11:37;;;;;;;22.35;13.23;;;;;;;;;;6249831;22;20342;-74
2022/01/07 08:16:51;;;;;;;23.52;11.40;;;;;;;;;;6289284;22;20022;-73
2022/01/07 08:19:17;;;;;;;15.82;9.73;;;;;;;;;;6289408;22;20082;-71
2022/01/07 08:21:45;;;;;;;19.50;11.75;;;;;;;;;;6279400;22;20042;-74
2022/01/07 08:24:13;;;;;;;20.67;11.23;;;;;;;;;;6283496;22;20003;-75
2022/01/07 08:26:39;;;;;;;16.80;9.80;;;;;;;;;;6283789;22;20105;-75
2022/01/07 08:29:08;;;;;;;15.10;10.23;;;;;;;;;;6280227;22;20023;-75
2022/01/07 08:36:51;;;;;;;23.77;11.20;;;;;;;;;;6277458;22;20015;-75
2022/01/07 08:39:18;;;;;;;26.25;13.27;;;;;;;;;;6277866;22;20029;-73
2022/01/07 08:41:52;;;;;;;15.15;7.90;;;;;;;;;;6251566;22;20026;-75
2022/01/07 08:44:20;;;;;;;;;;;;;;;;;;6280589;22;20003;-75
2022/01/07 08:46:47;;;;;;;20.27;10.80;;;;;;;;;;6293072;22;19899;-77
2022/01/07 08:49:13;;;;;;;37.67;17.00;;;;;;;;;;6285992;22;19996;-71
2022/01/07 08:51:40;;;;;;;159.32;75.15;;;;;;;;;;6280215;22;20425;-79
2022/01/07 08:54:14;;;;;;;47.33;22.40;;;;;;;;;;6273153;22;20008;-76
2022/01/07 08:56:45;;;;;;;27.83;13.50;;;;;;;;;;6261113;22;20014;-70
2022/01/07 08:59:11;;;;;;;61.30;27.80;;;;;;;;;;6283663;22;20018;-76
2022/01/07 09:01:42;;;;;;;65.57;33.22;;;;;;;;;;6287516;22;20404;-72
2022/01/07 09:04:10;;;;;;;57.70;29.65;;;;;;;;;;6281495;22;20003;-74
2022/01/07 09:06:36;;;;;;;85.05;51.50;;;;;;;;;;6280198;22;20003;-74
2022/01/07 09:09:02;;;;;;;19.25;9.68;;;;;;;;;;6279320;22;20019;-76
2022/01/07 09:11:28;;;;;;;19.48;9.52;;;;;;;;;;6276883;22;20070;-76
2022/01/07 09:13:58;;;;;;;17.60;9.70;;;;;;;;;;6276279;22;20053;-75
2022/01/07 09:16:25;;;;;;;17.00;9.27;;;;;;;;;;6276591;22;20030;-76
2022/01/07 09:18:51;;;;;;;14.50;8.93;;;;;;;;;;6275798;22;20377;-75
2022/01/07 09:21:19;;;;;;;15.85;8.98;;;;;;;;;;6283476;22;20015;-78
2022/01/07 09:23:45;;;;;;;15.40;8.93;;;;;;;;;;6286824;22;20072;-77
2022/01/07 09:26:13;;;;;;;14.43;9.02;;;;;;;;;;6261786;22;19999;-77
2022/01/07 09:28:40;;;;;;;11.63;8.45;;;;;;;;;;6286348;22;20004;-75
2022/01/07 09:31:07;;;;;;;14.88;9.63;;;;;;;;;;6270115;22;20026;-76
2022/01/07 09:33:33;;;;;;;13.85;9.85;;;;;;;;;;6286668;22;20346;-73
2022/01/07 09:35:59;;;;;;;18.23;10.85;;;;;;;;;;6276245;22;19996;-72
2022/01/07 09:38:26;;;;;;;15.52;9.98;;;;;;;;;;6254304;22;20086;-74
2022/01/07 09:40:52;;;;;;;18.52;10.05;;;;;;;;;;6278611;22;20007;-75
2022/01/07 09:43:18;;;;;;;18.45;11.20;;;;;;;;;;6297450;22;20033;-77
2022/01/07 09:45:45;;;;;;;17.67;10.50;;;;;;;;;;6302040;22;20434;-71
2022/01/07 09:48:13;;;;;;;19.73;11.10;;;;;;;;;;6293040;22;19984;-71
2022/01/07 09:50:39;;;;;;;17.65;11.43;;;;;;;;;;6278978;22;20011;-75
2022/01/07 09:53:06;;;;;;;21.30;11.85;;;;;;;;;;6296952;22;20003;-72
2022/01/07 09:55:32;;;;;;;21.45;11.77;;;;;;;;;;6304924;22;20014;-71
2022/01/07 09:57:59;;;;;;;20.15;11.73;;;;;;;;;;6304963;22;19980;-73
2022/01/07 10:00:25;;;;;;;20.80;11.63;;;;;;;;;;6266756;22;20018;-76
2022/01/07 10:03:01;;;;;;;19.95;11.55;;;;;;;;;;6270127;22;20003;-73
2022/01/07 10:05:28;;;;;;;17.10;11.25;;;;;;;;;;6301730;22;20011;-76
2022/01/07 10:07:54;;;;;;;17.65;10.60;;;;;;;;;;6276780;22;19999;-77
2022/01/07 10:10:20;;;;;;;19.85;11.60;;;;;;;;;;6277850;22;20089;-77
2022/01/07 10:12:55;;;;;;;21.13;11.00;;;;;;;;;;6252847;22;20010;-77
2022/01/07 10:15:25;;;;;;;19.95;10.68;;;;;;;;;;6301228;22;20011;-77
2022/01/07 10:18:01;;;;;;;27.25;11.75;;;;;;;;;;6304240;22;19995;-74
2022/01/07 10:20:32;;;;;;;18.23;11.48;;;;;;;;;;6304896;22;19999;-72
2022/01/07 10:23:08;;;;;;;20.42;10.82;;;;;;;;;;6275053;22;20019;-72
2022/01/07 10:25:35;;;;;;;16.90;10.15;;;;;;;;;;6301173;22;20006;-73
2022/01/07 10:28:06;;;;;;;18.33;10.23;;;;;;;;;;6301548;22;20002;-72
2022/01/07 10:30:52;;;;;;;14.98;9.93;;;;;;;;;;6303335;22;19996;-74
2022/01/07 10:33:29;;;;;;;16.23;10.05;;;;;;;;;;6301753;22;19996;-72
2022/01/07 10:35:55;;;;;;;17.67;10.30;;;;;;;;;;6304404;22;20007;-73
2022/01/07 10:38:28;;;;;;;19.58;11.15;;;;;;;;;;6296429;22;20433;-72
2022/01/07 10:40:59;;;;;;;18.77;11.43;;;;;;;;;;6302830;22;20416;-74
2022/01/07 10:43:32;;;;;;;16.58;9.18;;;;;;;;;;6299928;22;20006;-73
2022/01/07 10:46:08;;;;;;;18.00;10.73;;;;;;;;;;6265289;22;20031;-76
2022/01/07 10:48:47;;;;;;;18.45;10.13;;;;;;;;;;6286569;22;20015;-73
2022/01/07 10:51:18;;;;;;;15.80;9.82;;;;;;;;;;6299536;22;19984;-72
2022/01/07 10:53:55;;;;;;;15.68;10.07;;;;;;;;;;6291822;22;20015;-75
2022/01/07 10:56:22;;;;;;;15.10;8.88;;;;;;;;;;6286089;22;20048;-75
2022/01/07 10:58:50;;;;;;;13.15;8.38;;;;;;;;;;6287443;22;20012;-77
2022/01/07 11:01:26;;;;;;;15.20;9.23;;;;;;;;;;6287010;22;20000;-77
2022/01/07 11:03:53;;;;;;;13.55;7.85;;;;;;;;;;6254346;22;20011;-74
2022/01/07 11:06:20;;;;;;;14.32;8.82;;;;;;;;;;6281769;22;20067;-78
2022/01/07 11:08:48;;;;;;;15.52;8.95;;;;;;;;;;6280969;22;20372;-72
2022/01/07 11:11:14;;;;;;;17.20;9.15;;;;;;;;;;6281287;22;20007;-78
2022/01/07 11:13:44;;;;;;;16.23;10.32;;;;;;;;;;6285862;22;20067;-75
2022/01/07 11:16:10;;;;;;;14.05;8.82;;;;;;;;;;6261603;22;19995;-73
2022/01/07 11:18:40;;;;;;;17.00;9.23;;;;;;;;;;6270029;22;20000;-77
2022/01/07 11:21:08;;;;;;;17.10;9.00;;;;;;;;;;6290558;22;20070;-77
2022/01/07 11:23:41;;;;;;;12.88;8.15;;;;;;;;;;6262913;22;20008;-79
2022/01/07 11:26:08;;;;;;;14.83;8.80;;;;;;;;;;6292374;22;20000;-77
2022/01/07 11:28:35;;;;;;;14.65;8.75;;;;;;;;;;6267303;22;19994;-76
2022/01/07 11:31:05;;;;;;;16.15;9.57;;;;;;;;;;6258600;22;20011;-77
2022/01/07 11:33:31;;;;;;;17.20;10.23;;;;;;;;;;6282392;22;20786;-77
2022/01/07 11:35:58;;;;;;;14.13;7.63;;;;;;;;;;6286334;22;20070;-78
2022/01/07 11:38:54;;;;;;;11.25;8.05;;;;;;;;;;6297626;22;20060;-79
2022/01/07 11:41:56;;;;;;;13.40;7.18;;;;;;;;;;6295123;22;20008;-77
2022/01/07 11:44:27;;;;;;;11.10;7.93;;;;;;;;;;6129117;23;20009;-77
2022/01/07 11:47:14;;;;;;;15.52;8.32;;;;;;;;;;6112931;23;20006;-78
2022/01/07 11:49:42;;;;;;;14.98;8.93;;;;;;;;;;6112098;23;20033;-78
2022/01/07 11:52:27;;;;;;;15.90;8.57;;;;;;;;;;6088166;23;20002;-79
2022/01/07 11:55:11;;;;;;;15.77;8.50;;;;;;;;;;6100951;23;20036;-78
2022/01/07 11:57:50;;;;;;;14.25;7.63;;;;;;;;;;6104918;23;20002;-78
2022/01/07 12:00:36;;;;;;;12.20;7.88;;;;;;;;;;6104616;23;20106;-76
2022/01/07 12:03:02;;;;;;;16.30;8.73;;;;;;;;;;6117364;23;20018;-75
2022/01/07 12:05:33;;;;;;;13.88;8.20;;;;;;;;;;6113604;23;20115;-78
2022/01/07 12:08:04;;;;;;;17.67;9.27;;;;;;;;;;6118215;23;20010;-78
2022/01/07 12:10:31;;;;;;;14.63;8.70;;;;;;;;;;6092930;23;20011;-75
2022/01/07 12:13:00;;;;;;;15.60;8.38;;;;;;;;;;6091913;23;20318;-75
2022/01/07 12:15:27;;;;;;;13.73;8.40;;;;;;;;;;6119011;23;20082;-75
2022/01/07 12:17:53;;;;;;;14.75;8.75;;;;;;;;;;6144150;23;19985;-75
2022/01/07 12:20:19;;;;;;;15.20;8.55;;;;;;;;;;6207998;23;20028;-75
2022/01/07 12:22:47;;;;;;;13.30;7.75;;;;;;;;;;6207890;23;20024;-76
2022/01/07 12:25:30;;;;;;;17.70;8.77;;;;;;;;;;6183012;23;20012;-75
2022/01/07 12:28:00;;;;;;;12.13;7.67;;;;;;;;;;6296447;22;20007;-75
2022/01/07 12:30:27;;;;;;;15.63;7.82;;;;;;;;;;6274193;22;20225;-75
2022/01/07 12:32:56;;;;;;;16.48;7.82;;;;;;;;;;6299745;22;20330;-75
2022/01/07 12:35:24;;;;;;;11.27;7.40;;;;;;;;;;6301169;22;20000;-75
2022/01/07 12:37:54;;;;;;;11.85;6.85;;;;;;;;;;6244727;22;19999;-75
2022/01/07 12:40:23;;;;;;;11.30;6.20;;;;;;;;;;6292287;22;20000;-78
2022/01/07 12:42:49;;;;;;;11.52;7.10;;;;;;;;;;6301979;22;20024;-75
2022/01/07 12:45:23;;;;;;;13.70;7.18;;;;;;;;;;6301403;22;19996;-77
2022/01/07 12:47:51;;;;;;;11.25;6.95;;;;;;;;;;6302417;22;20821;-77
2022/01/07 12:50:38;;;;;;;13.90;6.72;;;;;;;;;;6290448;22;20400;-79
2022/01/07 12:53:06;;;;;;;11.80;6.93;;;;;;;;;;6271831;22;20015;-74
2022/01/07 12:55:34;;;;;;;9.90;6.03;;;;;;;;;;6286306;22;20450;-75
2022/01/07 12:58:02;;;;;;;9.32;6.50;;;;;;;;;;6252355;22;20008;-76
2022/01/07 13:00:40;;;;;;;10.57;6.70;;;;;;;;;;6283606;22;20004;-76
2022/01/07 13:03:07;;;;;;;9.85;6.20;;;;;;;;;;6253660;22;20019;-76
2022/01/07 13:05:37;;;;;;;9.93;6.22;;;;;;;;;;6282567;22;20020;-76
2022/01/07 13:08:09;;;;;;;10.50;5.72;;;;;;;;;;6262772;22;20003;-72
2022/01/07 13:10:44;;;;;;;12.70;6.88;;;;;;;;;;6294712;22;20310;-77
2022/01/07 13:13:22;;;;;;;10.77;5.93;;;;;;;;;;6292826;22;20368;-71
2022/01/07 13:15:54;;;;;;;12.05;6.68;;;;;;;;;;6292494;22;20000;-73
2022/01/07 13:18:20;;;;;;;9.18;5.88;;;;;;;;;;6272082;22;20035;-72
2022/01/07 13:20:47;;;;;;;9.77;5.85;;;;;;;;;;6293438;22;20006;-73
2022/01/07 13:23:14;;;;;;;10.77;5.72;;;;;;;;;;6290650;22;20342;-72
2022/01/07 13:25:40;;;;;;;10.50;5.80;;;;;;;;;;6287019;22;20019;-74
2022/01/07 13:28:07;;;;;;;8.85;5.60;;;;;;;;;;6249977;22;20053;-76
2022/01/07 13:30:34;;;;;;;9.73;5.53;;;;;;;;;;6277999;22;20414;-77
2022/01/07 13:33:10;;;;;;;9.27;5.40;;;;;;;;;;6285318;22;20007;-77
2022/01/07 13:35:37;;;;;;;9.93;5.75;;;;;;;;;;6278784;22;20000;-76
2022/01/07 13:38:15;;;;;;;9.93;6.00;;;;;;;;;;6282358;22;19995;-75
2022/01/07 13:40:41;;;;;;;10.00;5.72;;;;;;;;;;6281862;22;20425;-77
2022/01/07 13:43:12;;;;;;;9.25;6.50;;;;;;;;;;6282091;22;20012;-76
2022/01/07 13:45:40;;;;;;;12.20;6.88;;;;;;;;;;6229765;22;20770;-78
2022/01/07 13:48:09;;;;;;;11.73;6.85;;;;;;;;;;6261502;22;20014;-75
2022/01/07 13:50:38;;;;;;;9.45;5.78;;;;;;;;;;6262767;22;20012;-74
2022/01/07 13:53:14;;;;;;;11.38;6.38;;;;;;;;;;6300571;22;19995;-76
2022/01/07 13:55:40;;;;;;;11.73;6.57;;;;;;;;;;6301686;22;20026;-75
2022/01/07 13:58:11;;;;;;;15.52;8.35;;;;;;;;;;6302038;22;19984;-78
2022/01/07 14:00:38;;;;;;;9.82;6.18;;;;;;;;;;6298282;22;20057;-77
2022/01/07 14:03:04;;;;;;;14.55;7.53;;;;;;;;;;6267252;22;20018;-76
2022/01/07 14:05:31;;;;;;;15.70;7.30;;;;;;;;;;6295548;22;19996;-78
2022/01/07 14:07:57;;;;;;;10.85;6.30;;;;;;;;;;6287747;22;20444;-76
2022/01/07 14:10:28;;;;;;;10.00;6.10;;;;;;;;;;6286210;22;20003;-76
2022/01/07 14:12:54;;;;;;;13.60;6.68;;;;;;;;;;6285541;22;19996;-77
2022/01/07 14:15:27;;;;;;;11.77;7.35;;;;;;;;;;6277566;22;20004;-73
2022/01/07 14:18:07;;;;;;;10.93;6.80;;;;;;;;;;6277684;22;20087;-72
2022/01/07 14:20:42;;;;;;;22.35;9.07;;;;;;;;;;6278329;22;20006;-74
2022/01/07 14:23:13;;;;;;;14.25;8.50;;;;;;;;;;6279798;22;20090;-74
2022/01/07 14:25:39;;;;;;;12.20;7.55;;;;;;;;;;6290616;22;20004;-76
2022/01/07 14:28:05;;;;;;;11.90;7.35;;;;;;;;;;6287362;22;20004;-79
2022/01/07 14:30:31;;;;;;;10.65;6.70;;;;;;;;;;6295553;22;20619;-79
2022/01/07 14:32:57;;;;;;;8.57;5.88;;;;;;;;;;6293138;22;20004;-79
2022/01/07 14:35:23;;;;;;;8.02;5.45;;;;;;;;;;6290353;22;19996;-78
2022/01/07 14:37:49;;;;;;;11.07;5.93;;;;;;;;;;6296993;22;19984;-77
2022/01/07 14:40:15;;;;;;;12.27;7.22;;;;;;;;;;6266711;22;20385;-78